Time;durP1;ratioP1;P1;durP2;ratioP2;P2;SDS_P1;SDS_P2;PMS_P1;PMS_P2;Temp;Humidity;BMP_temperature;BMP_pressure;BME280_temperature;BME280_humidity;BME280_pressure;Samples;Min_cycle;Max_cycle;Signal;HPM_P1;HPM_P2
2021/05/16 00:01:32;;;;;;;10.10;3.10;;;11.10;99.90;;;;;;5017040;28;20432;-84
2021/05/16 00:03:58;;;;;;;10.43;2.43;;;11.20;99.90;;;;;;5000290;28;20570;-84
2021/05/16 00:06:27;;;;;;;11.07;3.03;;;11.20;99.90;;;;;;5000619;28;20456;-84
2021/05/16 00:08:53;;;;;;;10.07;3.63;;;11.10;99.90;;;;;;5000130;28;20492;-84
2021/05/16 00:11:19;;;;;;;11.60;2.77;;;11.10;99.90;;;;;;4996336;28;20465;-84
2021/05/16 00:13:45;;;;;;;16.60;2.80;;;11.00;99.90;;;;;;5006699;28;20424;-84
2021/05/16 00:16:13;;;;;;;10.40;3.50;;;10.90;99.90;;;;;;4983343;28;20454;-84
2021/05/16 00:18:41;;;;;;;6.60;2.50;;;10.90;99.90;;;;;;4999708;28;20526;-84
2021/05/16 00:21:07;;;;;;;11.60;3.03;;;10.80;99.90;;;;;;4999895;28;20432;-84
2021/05/16 00:23:35;;;;;;;8.77;2.03;;;10.90;99.90;;;;;;4983914;28;20448;-84
2021/05/16 00:26:04;;;;;;;7.73;2.77;;;10.80;99.90;;;;;;4983443;28;20483;-84
2021/05/16 00:28:29;;;;;;;7.93;3.30;;;10.70;99.90;;;;;;5016962;28;20429;-84
2021/05/16 00:31:00;;;;;;;10.00;2.63;;;10.70;99.90;;;;;;4994593;28;20500;-84
2021/05/16 00:33:26;;;;;;;7.43;2.83;;;10.70;99.90;;;;;;4968270;28;20464;-84
2021/05/16 00:35:55;;;;;;;8.40;2.67;;;10.70;99.90;;;;;;5016645;28;20464;-84
2021/05/16 00:38:21;;;;;;;7.63;2.30;;;10.60;99.90;;;;;;4983401;28;20432;-84
2021/05/16 00:40:47;;;;;;;9.77;3.00;;;10.70;99.90;;;;;;5016749;28;20924;-84
2021/05/16 00:43:13;;;;;;;9.53;2.77;;;10.70;99.90;;;;;;4982857;28;20502;-85
2021/05/16 00:45:39;;;;;;;12.70;3.73;;;10.70;99.90;;;;;;4983337;28;20455;-84
2021/05/16 00:48:10;;;;;;;9.17;2.93;;;10.70;99.90;;;;;;5015765;28;20436;-84
2021/05/16 00:50:47;;;;;;;8.63;2.90;;;10.80;99.90;;;;;;4998992;28;20820;-84
2021/05/16 00:53:23;;;;;;;7.20;2.90;;;10.80;99.90;;;;;;4999015;28;20523;-84
2021/05/16 00:55:53;;;;;;;6.97;2.30;;;10.80;99.90;;;;;;4999220;28;20436;-83
2021/05/16 00:58:27;;;;;;;10.33;3.03;;;10.90;99.90;;;;;;4982728;28;20753;-84
2021/05/16 01:00:55;;;;;;;15.33;3.77;;;10.90;99.90;;;;;;5015629;28;20440;-83
2021/05/16 01:03:27;;;;;;;13.60;3.07;;;10.90;99.90;;;;;;4983204;28;20500;-83
2021/05/16 01:05:56;;;;;;;10.43;2.83;;;10.90;99.90;;;;;;4998655;28;20519;-84
2021/05/16 01:08:28;;;;;;;10.50;2.77;;;11.00;99.90;;;;;;4998894;28;20456;-83
2021/05/16 01:10:55;;;;;;;7.63;2.70;;;11.00;99.90;;;;;;4966193;28;20475;-83
2021/05/16 01:13:25;;;;;;;11.10;2.90;;;10.90;99.90;;;;;;4982718;28;20844;-83
2021/05/16 01:15:54;;;;;;;12.07;3.10;;;10.90;99.90;;;;;;4979251;28;20498;-83
2021/05/16 01:18:21;;;;;;;10.90;2.93;;;10.90;99.90;;;;;;5007027;28;20483;-83
2021/05/16 01:20:51;;;;;;;10.17;3.27;;;10.90;99.90;;;;;;4982448;28;20489;-83
2021/05/16 01:23:33;;;;;;;9.23;2.57;;;11.00;99.90;;;;;;4998712;28;20424;-84
2021/05/16 01:26:07;;;;;;;10.50;2.30;;;11.00;99.90;;;;;;4979143;28;20437;-85
2021/05/16 01:28:33;;;;;;;12.17;2.70;;;11.00;99.90;;;;;;4949248;28;20451;-85
2021/05/16 01:30:59;;;;;;;6.70;2.60;;;11.00;99.90;;;;;;5014353;28;20488;-84
2021/05/16 01:33:28;;;;;;;13.20;3.10;;;11.00;99.90;;;;;;4982472;28;20424;-84
2021/05/16 01:35:56;;;;;;;10.53;2.60;;;11.00;99.90;;;;;;5015276;28;20521;-84
2021/05/16 01:38:23;;;;;;;11.13;3.37;;;11.10;99.90;;;;;;4998638;28;20512;-85
2021/05/16 01:40:49;;;;;;;13.77;2.93;;;11.00;99.90;;;;;;4982188;28;20513;-84
2021/05/16 01:43:35;;;;;;;13.20;2.77;;;11.00;99.90;;;;;;4982526;28;20494;-84
2021/05/16 01:46:03;;;;;;;6.50;2.53;;;11.00;99.90;;;;;;4998091;28;20436;-84
2021/05/16 01:48:30;;;;;;;17.63;3.37;;;10.90;99.90;;;;;;5014236;28;20575;-84
2021/05/16 01:51:00;;;;;;;4.50;1.90;;;10.90;99.90;;;;;;5014285;28;20475;-84
2021/05/16 01:53:30;;;;;;;10.63;3.33;;;10.90;99.90;;;;;;5013215;28;20447;-84
2021/05/16 01:55:58;;;;;;;10.17;2.37;;;10.90;99.90;;;;;;4981787;28;20444;-85
2021/05/16 01:58:27;;;;;;;13.17;3.37;;;10.80;99.90;;;;;;4981857;28;20515;-84
2021/05/16 02:00:54;;;;;;;10.70;2.40;;;10.80;99.90;;;;;;4997506;28;20440;-85
2021/05/16 02:03:31;;;;;;;10.17;2.90;;;10.80;99.90;;;;;;4997629;28;20432;-84
2021/05/16 02:06:00;;;;;;;10.10;3.07;;;10.70;99.90;;;;;;4997642;28;20864;-84
2021/05/16 02:08:27;;;;;;;11.17;2.73;;;10.70;99.90;;;;;;4997941;28;20456;-84
2021/05/16 02:10:53;;;;;;;13.60;3.23;;;10.60;99.90;;;;;;4997216;28;20475;-84
2021/05/16 02:13:22;;;;;;;11.93;3.17;;;10.70;99.90;;;;;;5013605;28;20436;-82
2021/05/16 02:16:03;;;;;;;9.13;2.40;;;10.70;99.90;;;;;;4998017;28;20459;-83
2021/05/16 02:18:29;;;;;;;8.77;3.47;;;10.60;99.90;;;;;;4992220;28;20504;-83
2021/05/16 02:20:55;;;;;;;12.10;2.77;;;10.60;99.90;;;;;;4992217;28;20459;-82
2021/05/16 02:23:22;;;;;;;14.00;3.23;;;10.60;99.90;;;;;;4997431;28;20431;-83
2021/05/16 02:25:51;;;;;;;6.33;2.17;;;10.50;99.90;;;;;;4997693;28;20487;-83
2021/05/16 02:28:25;;;;;;;9.87;2.83;;;10.50;99.90;;;;;;5014963;28;20790;-86
2021/05/16 02:30:53;;;;;;;13.50;3.23;;;10.50;99.90;;;;;;4997581;28;20474;-86
2021/05/16 02:33:24;;;;;;;11.20;2.43;;;10.50;99.90;;;;;;5015178;28;20431;-86
2021/05/16 02:35:55;;;;;;;12.77;2.87;;;10.50;99.90;;;;;;4998414;28;20429;-87
2021/05/16 02:38:23;;;;;;;9.20;3.10;;;10.50;99.90;;;;;;4998487;28;20409;-88
2021/05/16 02:40:51;;;;;;;10.63;3.13;;;10.40;99.90;;;;;;4979579;28;20441;-95
2021/05/16 02:43:20;;;;;;;15.50;3.33;;;10.40;99.90;;;;;;4995708;28;20456;-93
2021/05/16 02:45:46;;;;;;;12.07;2.70;;;10.30;99.90;;;;;;4996877;28;20437;-90
2021/05/16 02:48:19;;;;;;;11.20;4.07;;;10.40;99.90;;;;;;4995530;28;20416;-89
2021/05/16 02:50:47;;;;;;;9.60;2.90;;;10.30;99.90;;;;;;4996262;28;20503;-91
2021/05/16 02:53:24;;;;;;;13.90;2.50;;;10.30;99.90;;;;;;4980554;28;20420;-92
2021/05/16 02:55:59;;;;;;;19.70;3.47;;;10.30;99.90;;;;;;4999069;28;20428;-92
2021/05/16 02:58:27;;;;;;;11.23;3.37;;;10.20;99.90;;;;;;4999131;28;20424;-93
2021/05/16 03:01:00;;;;;;;11.10;2.23;;;10.20;99.90;;;;;;4982619;28;20425;-93
2021/05/16 03:03:32;;;;;;;7.93;2.87;;;10.20;99.90;;;;;;4963662;28;20433;-94
2021/05/16 03:06:05;;;;;;;8.60;2.53;;;10.20;99.90;;;;;;4995592;28;20421;-93
2021/05/16 03:08:34;;;;;;;10.27;2.40;;;10.20;99.90;;;;;;4982957;28;20910;-96
2021/05/16 03:11:05;;;;;;;10.70;2.83;;;10.20;99.90;;;;;;4982788;28;20503;-94
2021/05/16 03:13:36;;;;;;;12.53;2.60;;;10.20;99.90;;;;;;4998754;28;20443;-92
2021/05/16 03:16:11;;;;;;;13.97;3.30;;;10.20;99.90;;;;;;4998927;28;20422;-91
2021/05/16 03:18:38;;;;;;;8.30;2.50;;;10.10;99.90;;;;;;4980064;28;20907;-90
2021/05/16 03:21:05;;;;;;;11.83;2.60;;;10.10;99.90;;;;;;4995199;28;20750;-92
2021/05/16 03:23:33;;;;;;;8.97;2.53;;;10.10;99.90;;;;;;4995985;28;20437;-92
2021/05/16 03:26:02;;;;;;;7.93;2.77;;;10.10;99.90;;;;;;4995528;28;20519;-93
2021/05/16 03:28:29;;;;;;;11.70;2.97;;;10.20;99.90;;;;;;4982639;28;20524;-93
2021/05/16 03:30:55;;;;;;;8.67;2.37;;;10.10;99.90;;;;;;5019587;28;20510;-93
2021/05/16 03:33:27;;;;;;;9.37;2.60;;;10.10;99.90;;;;;;5019817;28;20428;-95
2021/05/16 03:35:53;;;;;;;7.33;2.20;;;10.10;99.90;;;;;;5002777;28;20898;-92
2021/05/16 03:38:22;;;;;;;17.47;3.00;;;10.00;99.90;;;;;;5002350;28;20440;-92
2021/05/16 03:40:50;;;;;;;10.83;3.00;;;10.10;99.90;;;;;;5018756;28;20442;-91
2021/05/16 03:43:18;;;;;;;11.77;3.60;;;10.10;99.90;;;;;;5002258;28;20432;-90
2021/05/16 03:45:44;;;;;;;7.83;2.60;;;10.00;99.90;;;;;;4989010;28;20429;-93
2021/05/16 03:48:14;;;;;;;12.23;3.00;;;10.00;99.90;;;;;;5014455;28;20424;-93
2021/05/16 03:50:45;;;;;;;12.03;3.50;;;10.00;99.90;;;;;;5019401;28;20455;-91
2021/05/16 03:53:11;;;;;;;10.83;3.00;;;9.90;99.90;;;;;;5000161;28;20495;-91
2021/05/16 03:55:40;;;;;;;7.70;2.63;;;10.00;99.90;;;;;;5002731;28;20420;-92
2021/05/16 03:58:10;;;;;;;17.03;3.20;;;9.90;99.90;;;;;;5019275;28;20437;-92
2021/05/16 04:00:37;;;;;;;12.10;2.63;;;10.00;99.90;;;;;;4986048;28;20435;-90
2021/05/16 04:03:05;;;;;;;5.53;2.30;;;10.00;99.90;;;;;;5018903;28;20448;-91
2021/05/16 04:05:31;;;;;;;6.50;3.47;;;10.00;99.90;;;;;;4991671;28;20429;-91
2021/05/16 04:08:00;;;;;;;6.70;2.30;;;10.00;99.90;;;;;;4981212;28;20428;-92
2021/05/16 04:10:26;;;;;;;9.07;3.03;;;10.00;99.90;;;;;;5002439;28;20468;-92
2021/05/16 04:12:52;;;;;;;5.63;2.30;;;10.00;99.90;;;;;;5002258;28;20412;-90
2021/05/16 04:15:22;;;;;;;12.70;2.80;;;10.00;99.90;;;;;;5002029;28;20429;-91
2021/05/16 04:17:48;;;;;;;14.10;3.67;;;10.00;99.90;;;;;;5018656;28;20448;-91
2021/05/16 04:20:16;;;;;;;10.00;3.20;;;10.10;99.90;;;;;;4985565;28;20435;-92
2021/05/16 04:22:43;;;;;;;8.13;3.53;;;10.10;99.90;;;;;;5001703;28;20531;-93
2021/05/16 04:25:09;;;;;;;6.60;2.77;;;10.20;99.90;;;;;;5001896;28;20420;-92
2021/05/16 04:27:37;;;;;;;9.10;3.17;;;10.10;99.90;;;;;;5018847;28;20516;-91
2021/05/16 04:30:05;;;;;;;15.33;3.90;;;10.20;99.90;;;;;;4985421;28;20957;-90
2021/05/16 04:32:35;;;;;;;11.70;3.07;;;10.20;99.90;;;;;;5001510;28;20482;-91
2021/05/16 04:35:01;;;;;;;10.90;3.27;;;10.20;99.90;;;;;;5018039;28;20421;-90
2021/05/16 04:37:28;;;;;;;11.03;2.63;;;10.30;99.90;;;;;;4985759;28;20424;-93
2021/05/16 04:39:54;;;;;;;6.57;3.00;;;10.30;99.90;;;;;;5001218;28;20420;-93
2021/05/16 04:42:25;;;;;;;12.43;2.93;;;10.30;99.90;;;;;;5001182;28;20894;-91
2021/05/16 04:44:53;;;;;;;14.83;3.07;;;10.30;99.90;;;;;;5001496;28;20512;-90
2021/05/16 04:47:23;;;;;;;12.80;2.97;;;10.30;99.90;;;;;;5018257;28;20878;-90
2021/05/16 04:49:48;;;;;;;11.00;2.90;;;10.40;99.90;;;;;;5018639;28;20439;-93
2021/05/16 04:52:14;;;;;;;10.43;4.03;;;10.40;99.90;;;;;;5017338;28;20460;-93
2021/05/16 04:54:43;;;;;;;8.33;2.60;;;10.50;99.90;;;;;;5001306;28;20424;-90
2021/05/16 04:57:09;;;;;;;9.40;3.73;;;10.50;99.90;;;;;;4981293;28;21242;-91
2021/05/16 04:59:36;;;;;;;13.90;3.20;;;10.60;99.90;;;;;;4981697;28;20439;-88
2021/05/16 05:02:06;;;;;;;9.10;3.00;;;10.70;99.90;;;;;;4998522;28;20422;-89
2021/05/16 05:04:32;;;;;;;8.93;3.17;;;10.70;99.90;;;;;;4997237;28;20458;-88
2021/05/16 05:07:00;;;;;;;12.07;4.37;;;10.80;99.90;;;;;;5017425;28;20910;-89
2021/05/16 05:09:28;;;;;;;8.27;3.50;;;10.90;99.90;;;;;;5000333;28;20882;-89
2021/05/16 05:11:54;;;;;;;13.13;3.40;;;11.00;99.90;;;;;;5000551;28;20511;-88
2021/05/16 05:14:20;;;;;;;8.20;3.30;;;11.00;99.90;;;;;;5000251;28;20957;-89
2021/05/16 05:16:52;;;;;;;10.17;3.33;;;11.10;99.90;;;;;;5017405;28;20429;-88
2021/05/16 05:19:20;;;;;;;16.17;4.20;;;11.10;99.90;;;;;;5017671;28;20456;-88
2021/05/16 05:21:46;;;;;;;9.93;2.90;;;11.10;99.90;;;;;;5017366;28;20917;-90
2021/05/16 05:24:15;;;;;;;7.37;3.50;;;11.30;99.90;;;;;;5017456;28;20437;-88
2021/05/16 05:26:41;;;;;;;12.43;3.40;;;11.50;99.90;;;;;;4984255;28;20596;-89
2021/05/16 05:29:07;;;;;;;11.40;3.90;;;11.40;99.90;;;;;;4999975;28;20426;-89
2021/05/16 05:31:33;;;;;;;8.90;3.20;;;11.40;99.90;;;;;;5016530;28;20483;-88
2021/05/16 05:34:26;;;;;;;9.97;3.27;;;11.40;99.90;;;;;;5017041;28;20416;-92
2021/05/16 05:36:53;;;;;;;10.53;3.30;;;11.40;99.90;;;;;;4997554;28;20394;-86
2021/05/16 05:39:19;;;;;;;11.80;3.50;;;11.50;99.90;;;;;;4996120;28;20765;-89
2021/05/16 05:41:45;;;;;;;8.20;3.60;;;11.50;99.90;;;;;;5000020;28;20465;-89
2021/05/16 05:44:12;;;;;;;15.00;3.90;;;11.40;99.90;;;;;;4999670;28;20426;-88
2021/05/16 05:46:41;;;;;;;11.47;4.13;;;11.50;99.90;;;;;;5000041;28;20429;-89
2021/05/16 05:49:07;;;;;;;12.70;3.70;;;11.60;99.90;;;;;;5016207;28;20417;-89
2021/05/16 05:51:35;;;;;;;7.53;3.60;;;11.60;99.90;;;;;;4999033;28;20556;-91
2021/05/16 05:54:03;;;;;;;12.87;3.80;;;11.80;99.90;;;;;;5016878;28;20410;-88
2021/05/16 05:56:29;;;;;;;7.40;3.20;;;11.90;99.90;;;;;;4983407;28;20431;-92
2021/05/16 05:58:58;;;;;;;11.27;3.67;;;11.90;99.90;;;;;;4964657;28;20435;-90
2021/05/16 06:01:24;;;;;;;11.13;2.97;;;12.00;99.90;;;;;;4996604;28;20807;-89
2021/05/16 06:03:49;;;;;;;7.97;2.77;;;12.00;99.90;;;;;;4996725;28;20425;-90
2021/05/16 06:06:18;;;;;;;9.17;3.00;;;12.10;99.90;;;;;;4997151;28;20459;-90
2021/05/16 06:08:46;;;;;;;9.33;2.87;;;12.20;99.90;;;;;;4980774;28;20417;-92
2021/05/16 06:11:12;;;;;;;7.37;2.60;;;12.20;99.90;;;;;;4979999;28;20997;-92
2021/05/16 06:13:40;;;;;;;12.07;3.20;;;12.20;99.90;;;;;;4980031;28;20883;-93
2021/05/16 06:16:06;;;;;;;8.70;3.17;;;12.20;99.90;;;;;;4997162;28;20444;-90
2021/05/16 06:18:36;;;;;;;9.93;3.60;;;12.30;99.90;;;;;;4997083;28;20455;-92
2021/05/16 06:21:02;;;;;;;7.50;3.10;;;12.30;99.90;;;;;;5015515;28;20775;-93
2021/05/16 06:23:35;;;;;;;10.70;3.03;;;12.30;99.90;;;;;;5016240;28;20447;-92
2021/05/16 06:26:01;;;;;;;8.57;3.27;;;12.20;99.90;;;;;;4999161;28;20775;-92
2021/05/16 06:28:29;;;;;;;13.37;3.70;;;12.30;99.90;;;;;;4983896;28;20536;-92
2021/05/16 06:30:55;;;;;;;12.13;3.90;;;12.30;99.90;;;;;;4999307;28;20874;-92
2021/05/16 06:33:21;;;;;;;9.87;3.00;;;12.30;99.90;;;;;;5016484;28;20470;-93
2021/05/16 06:35:52;;;;;;;7.13;3.20;;;12.20;99.90;;;;;;4999913;28;20517;-93
2021/05/16 06:38:18;;;;;;;11.60;3.30;;;12.10;99.90;;;;;;5015834;28;20416;-89
2021/05/16 06:40:44;;;;;;;12.60;3.53;;;12.10;99.90;;;;;;4999212;28;20955;-93
2021/05/16 06:43:11;;;;;;;12.80;3.07;;;12.10;99.90;;;;;;4999430;28;20422;-92
2021/05/16 06:45:37;;;;;;;8.50;3.50;;;12.00;99.90;;;;;;5017364;28;20433;-94
2021/05/16 06:48:06;;;;;;;9.83;3.17;;;12.00;99.90;;;;;;4998675;28;20745;-92
2021/05/16 06:50:32;;;;;;;11.50;3.80;;;12.00;99.90;;;;;;4998885;28;20481;-93
2021/05/16 06:53:00;;;;;;;7.97;3.30;;;12.10;99.90;;;;;;4999122;28;20440;-91
2021/05/16 06:55:26;;;;;;;10.67;3.23;;;12.10;99.90;;;;;;4996598;28;20428;-94
2021/05/16 06:57:52;;;;;;;8.40;2.90;;;12.20;99.90;;;;;;4979572;28;20448;-91
2021/05/16 07:00:18;;;;;;;10.10;3.57;;;12.20;99.90;;;;;;4995784;28;20419;-91
2021/05/16 07:02:44;;;;;;;11.87;3.73;;;12.20;99.90;;;;;;4995900;28;20422;-92
2021/05/16 07:05:10;;;;;;;11.23;3.97;;;12.20;99.90;;;;;;4978859;28;20430;-93
2021/05/16 07:07:41;;;;;;;15.13;4.77;;;12.30;99.90;;;;;;4996074;28;20475;-93
2021/05/16 07:10:08;;;;;;;11.90;4.50;;;12.40;99.90;;;;;;4979267;28;20421;-92
2021/05/16 07:12:38;;;;;;;19.90;4.03;;;12.40;99.90;;;;;;4995111;28;20425;-93
2021/05/16 07:15:05;;;;;;;7.87;3.07;;;12.40;99.90;;;;;;4978947;28;20419;-94
2021/05/16 07:17:33;;;;;;;8.33;3.20;;;12.40;99.90;;;;;;4979192;28;20435;-90
2021/05/16 07:20:02;;;;;;;13.33;4.90;;;12.50;99.90;;;;;;5007640;28;20436;-92
2021/05/16 07:22:32;;;;;;;6.83;3.03;;;12.50;99.90;;;;;;4998609;28;20424;-94
2021/05/16 07:24:58;;;;;;;8.37;3.67;;;12.70;99.90;;;;;;5015484;28;20421;-91
2021/05/16 07:27:27;;;;;;;10.57;4.10;;;12.60;99.90;;;;;;5015724;28;20493;-89
2021/05/16 07:29:54;;;;;;;12.80;3.50;;;12.60;99.90;;;;;;4982177;28;20500;-91
2021/05/16 07:32:24;;;;;;;8.07;3.30;;;12.60;99.90;;;;;;4981965;28;20480;-89
2021/05/16 07:34:53;;;;;;;11.03;3.70;;;12.70;99.90;;;;;;5015090;28;20422;-90
2021/05/16 07:38:26;;;;;;;9.93;3.60;;;12.80;99.90;;;;;;4998244;28;20430;-91
2021/05/16 07:40:55;;;;;;;12.70;3.47;;;12.80;99.90;;;;;;4983448;28;20934;-89
2021/05/16 07:43:25;;;;;;;10.50;3.00;;;13.00;99.90;;;;;;4965751;28;20767;-90
2021/05/16 07:45:53;;;;;;;11.70;3.30;;;13.20;99.90;;;;;;4962123;28;20431;-87
2021/05/16 07:48:28;;;;;;;9.83;3.80;;;13.30;99.90;;;;;;5001586;28;20499;-92
2021/05/16 07:50:58;;;;;;;12.60;3.97;;;13.40;99.90;;;;;;4994644;28;20469;-89
2021/05/16 07:53:25;;;;;;;16.67;4.10;;;13.40;99.90;;;;;;4970569;28;20437;-90
2021/05/16 07:55:52;;;;;;;11.10;3.57;;;13.50;99.90;;;;;;4981846;28;20434;-90
2021/05/16 07:58:18;;;;;;;15.33;4.10;;;13.60;99.90;;;;;;4981541;28;20443;-90
2021/05/16 08:00:49;;;;;;;8.20;3.30;;;13.60;99.90;;;;;;4981536;28;20446;-86
2021/05/16 08:03:15;;;;;;;8.80;3.70;;;13.50;99.90;;;;;;4980676;28;20786;-89
2021/05/16 08:05:51;;;;;;;8.60;3.60;;;13.40;99.90;;;;;;4965750;28;20434;-90
2021/05/16 08:08:19;;;;;;;11.27;3.47;;;13.30;99.90;;;;;;4981703;28;20444;-89
2021/05/16 08:10:48;;;;;;;14.97;3.67;;;13.20;99.90;;;;;;4981297;28;20476;-90
2021/05/16 08:13:16;;;;;;;13.97;3.73;;;13.20;99.90;;;;;;4981336;28;21026;-91
2021/05/16 08:15:42;;;;;;;9.70;2.87;;;13.20;99.90;;;;;;4965522;28;20448;-87
2021/05/16 08:18:10;;;;;;;7.90;3.80;;;13.20;99.90;;;;;;4984087;28;20915;-86
2021/05/16 08:20:37;;;;;;;7.53;2.63;;;13.40;99.90;;;;;;4983636;28;20823;-88
2021/05/16 08:23:05;;;;;;;11.33;2.77;;;13.60;99.90;;;;;;4982470;28;20456;-86
2021/05/16 08:25:33;;;;;;;8.33;4.40;;;13.80;99.90;;;;;;4984513;28;20436;-89
2021/05/16 08:28:00;;;;;;;9.97;3.13;;;13.70;99.90;;;;;;5000902;28;20428;-92
2021/05/16 08:30:29;;;;;;;15.13;3.77;;;13.60;99.90;;;;;;5017764;28;20848;-83
2021/05/16 08:32:55;;;;;;;6.37;2.63;;;13.20;99.90;;;;;;5001567;28;20431;-83
2021/05/16 08:35:24;;;;;;;5.77;2.20;;;13.00;99.90;;;;;;4985379;28;20453;-94
2021/05/16 08:37:50;;;;;;;8.83;3.50;;;12.90;99.90;;;;;;5018027;28;20436;-91
2021/05/16 08:40:18;;;;;;;6.07;2.13;;;12.90;99.90;;;;;;5017314;28;20509;-91
2021/05/16 08:42:45;;;;;;;7.17;3.20;;;12.90;99.90;;;;;;5000401;28;20433;-88
2021/05/16 08:45:14;;;;;;;8.40;2.33;;;12.70;99.90;;;;;;5000999;28;20484;-90
2021/05/16 08:47:44;;;;;;;6.17;2.57;;;12.60;99.90;;;;;;5000352;28;20953;-90
2021/05/16 08:50:25;;;;;;;8.87;2.40;;;12.60;99.90;;;;;;5017703;28;20457;-91
2021/05/16 08:52:51;;;;;;;9.03;2.60;;;12.60;99.90;;;;;;5001503;28;20499;-94
2021/05/16 08:55:17;;;;;;;9.00;2.67;;;12.70;99.90;;;;;;5001051;28;20478;-93
2021/05/16 08:57:43;;;;;;;8.43;3.27;;;12.70;99.90;;;;;;5017595;28;20437;-90
2021/05/16 09:00:25;;;;;;;8.30;2.93;;;12.80;99.90;;;;;;5015545;28;20455;-89
2021/05/16 09:03:10;;;;;;;12.70;3.07;;;13.20;99.90;;;;;;5017253;28;20474;-93
2021/05/16 09:05:45;;;;;;;16.83;3.00;;;13.60;99.90;;;;;;4998900;28;20448;-91
2021/05/16 09:08:13;;;;;;;13.67;3.30;;;13.80;99.90;;;;;;4999033;28;20447;-91
2021/05/16 09:10:44;;;;;;;8.73;3.00;;;13.90;99.90;;;;;;4999845;28;21034;-87
2021/05/16 09:13:22;;;;;;;12.90;2.97;;;13.90;99.90;;;;;;4999943;28;20487;-93
2021/05/16 09:16:02;;;;;;;8.57;2.47;;;13.90;99.90;;;;;;5017265;28;20880;-90
2021/05/16 09:18:47;;;;;;;8.80;3.13;;;14.30;99.90;;;;;;5017581;28;20431;-86
2021/05/16 09:21:30;;;;;;;10.10;3.60;;;14.50;99.90;;;;;;4983861;28;20420;-91
2021/05/16 09:24:05;;;;;;;7.60;3.30;;;14.70;99.90;;;;;;5016448;28;20444;-93
2021/05/16 09:26:50;;;;;;;7.80;3.33;;;14.90;99.90;;;;;;4982624;28;20438;-89
2021/05/16 09:29:41;;;;;;;9.37;4.27;;;14.80;99.90;;;;;;5000028;28;20483;-88
2021/05/16 09:32:10;;;;;;;9.33;3.53;;;14.90;99.90;;;;;;4996621;28;20514;-88
2021/05/16 09:34:39;;;;;;;12.77;4.20;;;15.00;99.90;;;;;;5012870;28;20488;-87
2021/05/16 09:37:08;;;;;;;13.47;4.67;;;15.10;99.90;;;;;;4994146;28;20770;-86
2021/05/16 09:39:35;;;;;;;8.50;4.27;;;15.20;99.90;;;;;;4998676;28;20897;-92
2021/05/16 09:42:08;;;;;;;9.93;3.60;;;14.90;99.90;;;;;;5016572;28;20501;-91
2021/05/16 09:45:05;;;;;;;11.27;3.53;;;14.50;99.90;;;;;;4999556;28;20416;-88
2021/05/16 09:47:31;;;;;;;8.90;3.00;;;14.20;99.90;;;;;;4971372;28;20448;-89
2021/05/16 09:50:25;;;;;;;5.70;2.50;;;14.10;99.90;;;;;;4965333;28;20492;-92
2021/05/16 09:53:02;;;;;;;7.07;2.93;;;14.00;99.90;;;;;;4958458;28;20454;-87
2021/05/16 09:55:31;;;;;;;4.67;2.50;;;14.10;99.90;;;;;;4966005;28;20417;-88
2021/05/16 09:57:59;;;;;;;11.50;3.07;;;14.30;99.90;;;;;;4981235;28;20472;-87
2021/05/16 10:00:26;;;;;;;7.90;2.60;;;14.50;99.90;;;;;;4981583;28;20438;-89
2021/05/16 10:02:52;;;;;;;10.43;3.40;;;14.90;99.90;;;;;;4981179;28;20455;-86
2021/05/16 10:05:18;;;;;;;5.20;2.87;;;15.20;99.90;;;;;;4980123;28;20485;-86
2021/05/16 10:07:47;;;;;;;4.30;2.50;;;15.50;99.90;;;;;;4980221;28;20430;-86
2021/05/16 10:10:13;;;;;;;7.13;3.40;;;15.90;99.90;;;;;;4980057;28;20502;-84
2021/05/16 10:12:42;;;;;;;9.07;3.87;;;16.30;99.90;;;;;;4996163;28;20433;-84
2021/05/16 10:15:23;;;;;;;8.10;3.20;;;16.70;99.40;;;;;;4964727;28;20449;-85
2021/05/16 10:17:52;;;;;;;6.27;3.47;;;16.50;98.70;;;;;;4979946;28;20447;-87
2021/05/16 10:20:24;;;;;;;7.73;3.57;;;16.20;99.90;;;;;;4981246;28;21233;-85
2021/05/16 10:22:56;;;;;;;5.47;3.40;;;15.50;99.90;;;;;;4995345;28;20811;-91
2021/05/16 10:25:37;;;;;;;4.57;2.47;;;14.10;99.90;;;;;;4999461;28;20424;-90
2021/05/16 10:28:04;;;;;;;4.43;2.17;;;13.20;99.90;;;;;;4984082;28;20431;-91
2021/05/16 10:30:33;;;;;;;8.07;1.87;;;12.70;99.90;;;;;;4951810;28;20487;-90
2021/05/16 10:33:01;;;;;;;5.50;1.53;;;12.40;99.90;;;;;;4966510;28;20440;-91
2021/05/16 10:35:51;;;;;;;3.33;1.30;;;12.40;99.90;;;;;;4983745;28;20419;-90
2021/05/16 10:38:38;;;;;;;3.47;1.57;;;12.40;99.90;;;;;;4999125;28;20466;-92
2021/05/16 10:41:35;;;;;;;3.60;1.70;;;12.60;99.90;;;;;;4982976;28;20459;-91
2021/05/16 10:44:29;;;;;;;4.33;1.60;;;13.00;99.90;;;;;;4996337;28;20857;-88
2021/05/16 10:46:57;;;;;;;4.80;1.80;;;13.30;99.90;;;;;;5013932;28;20420;-88
2021/05/16 10:49:27;;;;;;;4.47;1.80;;;13.60;99.90;;;;;;4986280;28;20514;-87
2021/05/16 10:51:54;;;;;;;5.60;2.70;;;14.00;99.90;;;;;;4997615;28;20490;-87
2021/05/16 10:54:31;;;;;;;5.63;2.83;;;14.40;99.90;;;;;;5014244;28;20969;-85
2021/05/16 10:57:13;;;;;;;4.40;1.90;;;14.70;99.90;;;;;;5013587;28;20436;-91
2021/05/16 10:59:43;;;;;;;5.87;2.23;;;15.00;99.90;;;;;;5014850;28;20425;-91
2021/05/16 11:02:09;;;;;;;8.73;2.93;;;15.30;99.90;;;;;;4996516;28;20436;-86
2021/05/16 11:04:46;;;;;;;4.87;2.43;;;15.70;99.90;;;;;;5013741;28;20432;-86
2021/05/16 11:07:34;;;;;;;8.07;3.50;;;15.90;99.90;;;;;;4976643;28;20437;-86
2021/05/16 11:10:28;;;;;;;7.07;3.17;;;15.80;99.90;;;;;;5007452;28;20429;-86
2021/05/16 11:13:16;;;;;;;6.77;3.53;;;15.80;99.90;;;;;;5012524;28;20420;-87
2021/05/16 11:15:50;;;;;;;7.63;3.60;;;15.90;99.90;;;;;;5011432;28;20925;-88
2021/05/16 11:18:19;;;;;;;10.57;3.63;;;15.90;99.90;;;;;;4979049;28;20455;-88
2021/05/16 11:20:55;;;;;;;8.60;3.30;;;16.00;99.90;;;;;;4994991;28;20765;-85
2021/05/16 11:23:28;;;;;;;7.90;3.37;;;16.10;99.90;;;;;;5012238;28;20439;-85
2021/05/16 11:25:55;;;;;;;7.97;3.60;;;16.10;99.90;;;;;;5012091;28;20424;-85
2021/05/16 11:28:25;;;;;;;6.37;3.70;;;16.10;99.90;;;;;;5013176;28;20427;-84
2021/05/16 11:30:56;;;;;;;6.10;3.60;;;16.20;99.90;;;;;;5012208;28;20478;-84
2021/05/16 11:33:37;;;;;;;4.73;3.30;;;16.70;99.90;;;;;;4991808;28;20789;-84
2021/05/16 11:36:12;;;;;;;5.43;3.97;;;17.10;99.90;;;;;;5011592;28;20439;-85
2021/05/16 11:38:43;;;;;;;7.20;4.00;;;17.40;97.20;;;;;;4996600;28;20440;-85
2021/05/16 11:41:35;;;;;;;6.90;3.97;;;17.60;95.90;;;;;;5013688;28;20435;-86
2021/05/16 11:44:12;;;;;;;4.67;4.27;;;17.90;95.60;;;;;;4990512;28;20433;-86
2021/05/16 11:46:41;;;;;;;4.00;3.60;;;17.90;95.50;;;;;;5013743;28;20412;-86
2021/05/16 11:49:09;;;;;;;5.70;3.97;;;17.80;96.50;;;;;;5013325;28;20448;-86
2021/05/16 11:51:37;;;;;;;5.30;3.20;;;17.70;95.30;;;;;;5000149;28;20470;-85
2021/05/16 11:54:12;;;;;;;4.23;3.50;;;17.60;98.00;;;;;;5017195;28;20436;-84
2021/05/16 11:56:43;;;;;;;4.30;3.80;;;17.50;96.80;;;;;;4981706;28;20887;-85
2021/05/16 11:59:09;;;;;;;7.47;4.00;;;17.50;97.90;;;;;;4998931;28;20425;-85
2021/05/16 12:01:38;;;;;;;10.33;4.20;;;17.30;95.90;;;;;;5018250;28;20435;-86
2021/05/16 12:04:12;;;;;;;6.17;4.70;;;16.90;95.40;;;;;;5017882;28;20432;-86
2021/05/16 12:06:44;;;;;;;9.63;4.00;;;16.80;97.90;;;;;;5017566;28;20506;-86
2021/05/16 12:09:17;;;;;;;4.37;3.97;;;16.90;97.70;;;;;;5017135;28;20483;-87
2021/05/16 12:11:46;;;;;;;6.07;3.80;;;17.00;96.80;;;;;;5017072;28;20466;-88
2021/05/16 12:14:17;;;;;;;6.30;4.07;;;17.10;99.90;;;;;;5017185;28;20487;-87
2021/05/16 12:17:01;;;;;;;4.50;3.90;;;17.20;97.20;;;;;;5017366;28;20758;-85
2021/05/16 12:19:37;;;;;;;4.83;3.50;;;17.40;96.40;;;;;;5016590;28;20468;-84
2021/05/16 12:22:12;;;;;;;4.70;3.27;;;17.40;95.90;;;;;;4997890;28;20491;-84
2021/05/16 12:24:47;;;;;;;8.03;3.40;;;17.40;94.90;;;;;;5012130;28;20477;-85
2021/05/16 12:27:15;;;;;;;3.80;3.50;;;17.30;96.40;;;;;;5000164;28;20428;-91
2021/05/16 12:29:41;;;;;;;8.77;4.70;;;17.30;95.50;;;;;;4999650;28;20770;-85
2021/05/16 12:32:09;;;;;;;5.63;4.63;;;17.50;94.40;;;;;;5016148;28;20535;-86
2021/05/16 12:34:35;;;;;;;4.90;3.23;;;17.70;94.70;;;;;;4999560;28;20520;-85
2021/05/16 12:37:17;;;;;;;5.70;4.23;;;17.80;92.80;;;;;;5016682;28;20425;-85
2021/05/16 12:39:45;;;;;;;5.33;3.40;;;17.70;92.90;;;;;;4983543;28;20458;-85
2021/05/16 12:42:26;;;;;;;5.90;3.50;;;17.70;92.50;;;;;;4999650;28;20478;-85
2021/05/16 12:44:53;;;;;;;5.40;4.07;;;17.50;92.20;;;;;;5016414;28;20420;-83
2021/05/16 12:47:30;;;;;;;6.87;4.20;;;17.40;92.40;;;;;;4999651;28;20429;-85
2021/05/16 12:50:12;;;;;;;4.67;3.60;;;17.30;93.00;;;;;;4999330;28;20886;-86
2021/05/16 12:52:38;;;;;;;5.03;4.50;;;17.30;93.50;;;;;;5017181;28;20477;-86
2021/05/16 12:55:05;;;;;;;4.90;3.70;;;17.40;92.10;;;;;;5016568;28;20425;-89
2021/05/16 13:00:07;;;;;;;5.13;4.10;;;17.50;91.90;;;;;;4998662;28;20438;-86
2021/05/16 13:02:38;;;;;;;3.70;3.37;;;17.50;92.10;;;;;;5011581;28;20465;-86